sensor_id;sensor_type;location;lat;lon;timestamp;pressure;altitude;pressure_sealevel;temperature;humidity
40075;BME280;26529;51.530;11.754;2023-01-19T00:01:24;98780.56;;;17.27;48.12
40075;BME280;26529;51.530;11.754;2023-01-19T00:03:50;98789.47;;;17.26;48.18
40075;BME280;26529;51.530;11.754;2023-01-19T00:06:16;98798.34;;;17.25;48.07
40075;BME280;26529;51.530;11.754;2023-01-19T00:08:41;98798.34;;;17.25;48.15
40075;BME280;26529;51.530;11.754;2023-01-19T00:11:11;98798.34;;;17.25;48.06
40075;BME280;26529;51.530;11.754;2023-01-19T00:13:37;98803.66;;;17.25;48.16
40075;BME280;26529;51.530;11.754;2023-01-19T00:16:03;98801.16;;;17.24;48.18
40075;BME280;26529;51.530;11.754;2023-01-19T00:18:29;98806.44;;;17.24;48.11
40075;BME280;26529;51.530;11.754;2023-01-19T00:20:54;98805.59;;;17.23;48.08
40075;BME280;26529;51.530;11.754;2023-01-19T00:23:20;98806.56;;;17.22;48.07
40075;BME280;26529;51.530;11.754;2023-01-19T00:25:45;98799.44;;;17.22;48.01
40075;BME280;26529;51.530;11.754;2023-01-19T00:28:14;98801.25;;;17.22;48.03
40075;BME280;26529;51.530;11.754;2023-01-19T00:30:40;98796.06;;;17.20;48.16
40075;BME280;26529;51.530;11.754;2023-01-19T00:33:07;98803.19;;;17.20;48.19
40075;BME280;26529;51.530;11.754;2023-01-19T00:35:34;98801.38;;;17.20;48.11
40075;BME280;26529;51.530;11.754;2023-01-19T00:38:00;98803.06;;;17.21;48.09
40075;BME280;26529;51.530;11.754;2023-01-19T00:40:26;98805.00;;;17.19;48.05
40075;BME280;26529;51.530;11.754;2023-01-19T00:42:52;98809.44;;;17.19;48.10
40075;BME280;26529;51.530;11.754;2023-01-19T00:45:21;98813.19;;;17.16;48.22
40075;BME280;26529;51.530;11.754;2023-01-19T00:47:48;98813.03;;;17.18;48.17
40075;BME280;26529;51.530;11.754;2023-01-19T00:50:19;98813.19;;;17.16;48.04
40075;BME280;26529;51.530;11.754;2023-01-19T00:52:45;98815.69;;;17.18;48.01
40075;BME280;26529;51.530;11.754;2023-01-19T00:55:13;98819.31;;;17.17;48.11
40075;BME280;26529;51.530;11.754;2023-01-19T00:57:39;98821.97;;;17.17;48.11
40075;BME280;26529;51.530;11.754;2023-01-19T01:02:42;98834.50;;;17.15;48.08
40075;BME280;26529;51.530;11.754;2023-01-19T01:05:09;98832.81;;;17.14;47.95
40075;BME280;26529;51.530;11.754;2023-01-19T01:07:35;98830.00;;;17.15;48.20
40075;BME280;26529;51.530;11.754;2023-01-19T01:10:09;98833.53;;;17.16;48.01
40075;BME280;26529;51.530;11.754;2023-01-19T01:12:36;98839.78;;;17.15;48.07
40075;BME280;26529;51.530;11.754;2023-01-19T01:15:03;98845.31;;;17.12;48.10
40075;BME280;26529;51.530;11.754;2023-01-19T01:17:29;98841.84;;;17.11;48.22
40075;BME280;26529;51.530;11.754;2023-01-19T01:19:54;98845.31;;;17.12;48.12
40075;BME280;26529;51.530;11.754;2023-01-19T01:22:19;98844.22;;;17.14;47.94
40075;BME280;26529;51.530;11.754;2023-01-19T01:24:45;98849.66;;;17.13;48.02
40075;BME280;26529;51.530;11.754;2023-01-19T01:27:10;98843.63;;;17.11;48.11
40075;BME280;26529;51.530;11.754;2023-01-19T01:29:36;98849.78;;;17.11;48.10
40075;BME280;26529;51.530;11.754;2023-01-19T01:32:01;98838.31;;;17.11;48.13
40075;BME280;26529;51.530;11.754;2023-01-19T01:34:27;98838.31;;;17.11;48.08
40075;BME280;26529;51.530;11.754;2023-01-19T01:36:52;98842.81;;;17.10;48.17
40075;BME280;26529;51.530;11.754;2023-01-19T01:39:19;98845.56;;;17.08;48.00
40075;BME280;26529;51.530;11.754;2023-01-19T01:41:44;98852.53;;;17.09;48.15
40075;BME280;26529;51.530;11.754;2023-01-19T01:44:49;98851.69;;;17.09;48.17
40075;BME280;26529;51.530;11.754;2023-01-19T01:52:26;98849.19;;;17.07;48.25
40075;BME280;26529;51.530;11.754;2023-01-19T01:54:54;98847.50;;;17.06;48.19
40075;BME280;26529;51.530;11.754;2023-01-19T01:57:20;98846.63;;;17.06;48.05
40075;BME280;26529;51.530;11.754;2023-01-19T01:59:47;98852.78;;;17.06;48.18
40075;BME280;26529;51.530;11.754;2023-01-19T02:02:20;98852.78;;;17.06;48.14
40075;BME280;26529;51.530;11.754;2023-01-19T02:05:15;98850.13;;;17.06;48.13
40075;BME280;26529;51.530;11.754;2023-01-19T02:07:45;98856.38;;;17.05;47.99
40075;BME280;26529;51.530;11.754;2023-01-19T02:10:31;98851.06;;;17.05;48.14
40075;BME280;26529;51.530;11.754;2023-01-19T02:13:17;98853.00;;;17.03;48.13
40075;BME280;26529;51.530;11.754;2023-01-19T02:15:47;98851.22;;;17.04;48.22
40075;BME280;26529;51.530;11.754;2023-01-19T02:18:14;98853.00;;;17.03;48.09
40075;BME280;26529;51.530;11.754;2023-01-19T02:20:44;98849.63;;;17.01;48.27
40075;BME280;26529;51.530;11.754;2023-01-19T02:23:16;98856.63;;;17.02;48.33
40075;BME280;26529;51.530;11.754;2023-01-19T02:25:44;98861.91;;;17.02;48.07
40075;BME280;26529;51.530;11.754;2023-01-19T02:28:11;98858.31;;;17.03;48.08
40075;BME280;26529;51.530;11.754;2023-01-19T02:30:38;98851.31;;;17.02;48.13
40075;BME280;26529;51.530;11.754;2023-01-19T02:33:04;98847.94;;;17.00;48.17
40075;BME280;26529;51.530;11.754;2023-01-19T02:35:31;98846.97;;;17.01;48.48
40075;BME280;26529;51.530;11.754;2023-01-19T02:37:56;98844.31;;;17.01;48.16
40075;BME280;26529;51.530;11.754;2023-01-19T02:40:23;98839.03;;;17.01;48.10
40075;BME280;26529;51.530;11.754;2023-01-19T02:42:51;98848.75;;;17.01;48.09
40075;BME280;26529;51.530;11.754;2023-01-19T02:45:21;98840.94;;;16.99;48.19
40075;BME280;26529;51.530;11.754;2023-01-19T02:47:49;98842.53;;;17.02;48.07
40075;BME280;26529;51.530;11.754;2023-01-19T02:50:46;98840.00;;;17.00;48.19
40075;BME280;26529;51.530;11.754;2023-01-19T02:56:21;98835.88;;;16.96;48.14
40075;BME280;26529;51.530;11.754;2023-01-19T02:59:11;98835.88;;;16.96;48.22
40075;BME280;26529;51.530;11.754;2023-01-19T03:01:56;98826.16;;;16.97;48.23
40075;BME280;26529;51.530;11.754;2023-01-19T03:04:43;98834.91;;;16.97;48.19
40075;BME280;26529;51.530;11.754;2023-01-19T03:07:18;98828.78;;;16.97;47.99
40075;BME280;26529;51.530;11.754;2023-01-19T03:09:54;98829.63;;;16.97;48.16
40075;BME280;26529;51.530;11.754;2023-01-19T03:12:33;98836.75;;;16.97;48.07
40075;BME280;26529;51.530;11.754;2023-01-19T03:15:10;98823.59;;;16.95;48.02
40075;BME280;26529;51.530;11.754;2023-01-19T03:17:39;98829.72;;;16.95;48.18
40075;BME280;26529;51.530;11.754;2023-01-19T03:20:05;98821.94;;;16.94;48.18
40075;BME280;26529;51.530;11.754;2023-01-19T03:22:32;98834.19;;;16.95;48.19
40075;BME280;26529;51.530;11.754;2023-01-19T03:25:00;98832.50;;;16.94;48.14
40075;BME280;26529;51.530;11.754;2023-01-19T03:27:28;98832.38;;;16.95;48.19
40075;BME280;26529;51.530;11.754;2023-01-19T03:30:01;98834.19;;;16.95;48.26
40075;BME280;26529;51.530;11.754;2023-01-19T03:32:34;98834.19;;;16.95;48.29
40075;BME280;26529;51.530;11.754;2023-01-19T03:35:06;98836.13;;;16.93;48.19
40075;BME280;26529;51.530;11.754;2023-01-19T03:37:36;98831.78;;;16.92;48.20
40075;BME280;26529;51.530;11.754;2023-01-19T03:40:04;98833.47;;;16.93;48.13
40075;BME280;26529;51.530;11.754;2023-01-19T03:42:29;98836.13;;;16.93;48.13
40075;BME280;26529;51.530;11.754;2023-01-19T03:44:55;98836.13;;;16.93;48.13
40075;BME280;26529;51.530;11.754;2023-01-19T03:47:22;98835.28;;;16.92;48.09
40075;BME280;26529;51.530;11.754;2023-01-19T03:49:49;98841.44;;;16.93;48.50
40075;BME280;26529;51.530;11.754;2023-01-19T03:52:16;98834.41;;;16.92;48.36
40075;BME280;26529;51.530;11.754;2023-01-19T03:54:42;98838.88;;;16.91;48.16
40075;BME280;26529;51.530;11.754;2023-01-19T03:57:07;98834.41;;;16.92;48.15
40075;BME280;26529;51.530;11.754;2023-01-19T03:59:34;98834.66;;;16.89;48.33
40075;BME280;26529;51.530;11.754;2023-01-19T04:02:00;98836.34;;;16.90;48.25
40075;BME280;26529;51.530;11.754;2023-01-19T04:04:25;98833.00;;;16.88;48.37
40075;BME280;26529;51.530;11.754;2023-01-19T04:06:51;98846.94;;;16.90;48.45
40075;BME280;26529;51.530;11.754;2023-01-19T04:09:16;98846.94;;;16.90;48.32
40075;BME280;26529;51.530;11.754;2023-01-19T04:11:42;98846.94;;;16.90;48.36
40075;BME280;26529;51.530;11.754;2023-01-19T04:14:07;98843.56;;;16.88;48.15
40075;BME280;26529;51.530;11.754;2023-01-19T04:16:33;98856.09;;;16.86;48.31
40075;BME280;26529;51.530;11.754;2023-01-19T04:18:59;98851.53;;;16.88;48.26
40075;BME280;26529;51.530;11.754;2023-01-19T04:21:24;98852.47;;;16.87;48.23
40075;BME280;26529;51.530;11.754;2023-01-19T04:23:50;98859.56;;;16.86;48.24
40075;BME280;26529;51.530;11.754;2023-01-19T04:26:17;98862.09;;;16.88;48.22
40075;BME280;26529;51.530;11.754;2023-01-19T04:28:43;98866.69;;;16.86;48.32
40075;BME280;26529;51.530;11.754;2023-01-19T04:31:08;98861.41;;;16.86;48.38
40075;BME280;26529;51.530;11.754;2023-01-19T04:33:34;98864.75;;;16.88;48.20
40075;BME280;26529;51.530;11.754;2023-01-19T04:35:59;98871.03;;;16.87;48.18
40075;BME280;26529;51.530;11.754;2023-01-19T04:38:25;98868.38;;;16.87;48.26
40075;BME280;26529;51.530;11.754;2023-01-19T04:40:51;98868.47;;;16.85;48.27
40075;BME280;26529;51.530;11.754;2023-01-19T04:43:18;98864.97;;;16.85;48.20
40075;BME280;26529;51.530;11.754;2023-01-19T04:45:44;98874.75;;;16.84;48.21
40075;BME280;26529;51.530;11.754;2023-01-19T04:48:10;98875.56;;;16.85;48.18
40075;BME280;26529;51.530;11.754;2023-01-19T04:50:36;98875.56;;;16.85;48.34
40075;BME280;26529;51.530;11.754;2023-01-19T04:53:02;98873.06;;;16.83;48.36
40075;BME280;26529;51.530;11.754;2023-01-19T04:55:27;98873.88;;;16.84;48.06
40075;BME280;26529;51.530;11.754;2023-01-19T04:57:53;98880.84;;;16.85;48.29
40075;BME280;26529;51.530;11.754;2023-01-19T05:00:19;98881.81;;;16.84;48.22
40075;BME280;26529;51.530;11.754;2023-01-19T05:02:45;98876.53;;;16.84;48.30
40075;BME280;26529;51.530;11.754;2023-01-19T05:05:11;98876.63;;;16.82;48.41
40075;BME280;26529;51.530;11.754;2023-01-19T05:07:37;98870.41;;;16.83;48.39
40075;BME280;26529;51.530;11.754;2023-01-19T05:10:03;98880.25;;;16.81;48.34
40075;BME280;26529;51.530;11.754;2023-01-19T05:12:29;98874.00;;;16.82;48.22
40075;BME280;26529;51.530;11.754;2023-01-19T05:14:54;98870.53;;;16.81;48.43
40075;BME280;26529;51.530;11.754;2023-01-19T05:17:20;98865.22;;;16.81;48.40
40075;BME280;26529;51.530;11.754;2023-01-19T05:19:45;98868.84;;;16.80;48.30
40075;BME280;26529;51.530;11.754;2023-01-19T05:22:12;98867.16;;;16.79;48.21
40075;BME280;26529;51.530;11.754;2023-01-19T05:24:38;98881.09;;;16.81;48.33
40075;BME280;26529;51.530;11.754;2023-01-19T05:27:03;98873.28;;;16.80;48.41
40075;BME280;26529;51.530;11.754;2023-01-19T05:29:29;98875.91;;;16.80;48.24
40075;BME280;26529;51.530;11.754;2023-01-19T05:31:55;98872.44;;;16.79;48.48
40075;BME280;26529;51.530;11.754;2023-01-19T05:34:20;98872.44;;;16.79;48.29
40075;BME280;26529;51.530;11.754;2023-01-19T05:36:46;98880.50;;;16.78;48.33
40075;BME280;26529;51.530;11.754;2023-01-19T05:39:12;98881.31;;;16.78;48.32
40075;BME280;26529;51.530;11.754;2023-01-19T05:41:38;98877.97;;;16.76;48.41
40075;BME280;26529;51.530;11.754;2023-01-19T05:44:04;98885.78;;;16.78;48.43
40075;BME280;26529;51.530;11.754;2023-01-19T05:46:29;98883.97;;;16.78;48.23
40075;BME280;26529;51.530;11.754;2023-01-19T05:48:55;98885.69;;;16.79;48.41
40075;BME280;26529;51.530;11.754;2023-01-19T05:51:20;98878.81;;;16.77;48.34
40075;BME280;26529;51.530;11.754;2023-01-19T05:53:46;98888.53;;;16.76;48.39
40075;BME280;26529;51.530;11.754;2023-01-19T05:56:11;98881.47;;;16.77;48.44
40075;BME280;26529;51.530;11.754;2023-01-19T05:58:38;98888.53;;;16.76;48.26
40075;BME280;26529;51.530;11.754;2023-01-19T06:01:05;98890.22;;;16.77;48.42
40075;BME280;26529;51.530;11.754;2023-01-19T06:03:33;98893.84;;;16.76;48.30
40075;BME280;26529;51.530;11.754;2023-01-19T06:05:59;98892.06;;;16.77;48.32
40075;BME280;26529;51.530;11.754;2023-01-19T06:08:25;98893.84;;;16.76;48.39
40075;BME280;26529;51.530;11.754;2023-01-19T06:10:51;98897.44;;;16.75;48.42
40075;BME280;26529;51.530;11.754;2023-01-19T06:13:16;98902.75;;;16.75;48.40
40075;BME280;26529;51.530;11.754;2023-01-19T06:15:42;98895.03;;;16.72;48.42
40075;BME280;26529;51.530;11.754;2023-01-19T06:18:12;98896.59;;;16.75;48.38
40075;BME280;26529;51.530;11.754;2023-01-19T06:20:39;98902.75;;;16.75;48.38
40075;BME280;26529;51.530;11.754;2023-01-19T06:23:05;98902.03;;;16.73;48.50
40075;BME280;26529;51.530;11.754;2023-01-19T06:25:30;98902.97;;;16.72;48.43
40075;BME280;26529;51.530;11.754;2023-01-19T06:27:56;98898.53;;;16.73;48.50
40075;BME280;26529;51.530;11.754;2023-01-19T06:30:21;98902.97;;;16.72;48.36
40075;BME280;26529;51.530;11.754;2023-01-19T06:32:47;98910.78;;;16.74;48.46
40075;BME280;26529;51.530;11.754;2023-01-19T06:35:13;98908.25;;;16.72;48.42
40075;BME280;26529;51.530;11.754;2023-01-19T06:37:39;98912.63;;;16.73;48.53
40075;BME280;26529;51.530;11.754;2023-01-19T06:40:06;98916.34;;;16.71;48.50
40075;BME280;26529;51.530;11.754;2023-01-19T06:42:31;98915.00;;;16.76;48.45
40075;BME280;26529;51.530;11.754;2023-01-19T06:44:57;98921.94;;;16.90;48.36
40075;BME280;26529;51.530;11.754;2023-01-19T06:47:22;98925.91;;;16.96;48.40
40075;BME280;26529;51.530;11.754;2023-01-19T06:49:48;98922.75;;;16.91;48.83
40075;BME280;26529;51.530;11.754;2023-01-19T06:52:14;98924.94;;;16.86;48.81
40075;BME280;26529;51.530;11.754;2023-01-19T06:54:42;98925.16;;;16.82;48.66
40075;BME280;26529;51.530;11.754;2023-01-19T06:57:08;98921.78;;;16.80;48.75
40075;BME280;26529;51.530;11.754;2023-01-19T06:59:35;98924.63;;;16.77;49.00
40075;BME280;26529;51.530;11.754;2023-01-19T07:02:00;98921.28;;;16.75;48.76
40075;BME280;26529;51.530;11.754;2023-01-19T07:04:26;98920.31;;;16.76;48.79
40075;BME280;26529;51.530;11.754;2023-01-19T07:06:51;98922.97;;;16.76;48.87
40075;BME280;26529;51.530;11.754;2023-01-19T07:09:17;98917.78;;;16.75;48.52
40075;BME280;26529;51.530;11.754;2023-01-19T07:11:45;98931.88;;;16.75;48.73
40075;BME280;26529;51.530;11.754;2023-01-19T07:14:11;98918.84;;;16.72;48.74
40075;BME280;26529;51.530;11.754;2023-01-19T07:16:36;98924.13;;;16.72;48.82
40075;BME280;26529;51.530;11.754;2023-01-19T07:19:02;98931.00;;;16.75;48.76
40075;BME280;26529;51.530;11.754;2023-01-19T07:21:28;98925.84;;;16.73;48.66
40075;BME280;26529;51.530;11.754;2023-01-19T07:23:54;98928.59;;;16.72;48.68
40075;BME280;26529;51.530;11.754;2023-01-19T07:26:20;98934.72;;;16.72;48.73
40075;BME280;26529;51.530;11.754;2023-01-19T07:28:46;98938.22;;;16.73;48.76
40075;BME280;26529;51.530;11.754;2023-01-19T07:31:12;98947.13;;;16.72;48.75
40075;BME280;26529;51.530;11.754;2023-01-19T07:33:38;98940.00;;;16.72;48.59
40075;BME280;26529;51.530;11.754;2023-01-19T07:36:04;98950.59;;;16.72;48.76
40075;BME280;26529;51.530;11.754;2023-01-19T07:38:29;98953.38;;;16.71;48.71
40075;BME280;26529;51.530;11.754;2023-01-19T07:40:59;98959.50;;;16.71;48.76
40075;BME280;26529;51.530;11.754;2023-01-19T07:43:25;98953.50;;;16.69;48.73
40075;BME280;26529;51.530;11.754;2023-01-19T07:45:50;98945.56;;;16.69;48.84
40075;BME280;26529;51.530;11.754;2023-01-19T07:48:16;98954.44;;;16.68;48.71
40075;BME280;26529;51.530;11.754;2023-01-19T07:50:42;98961.44;;;16.69;48.70
40075;BME280;26529;51.530;11.754;2023-01-19T07:53:08;98954.34;;;16.70;48.80
40075;BME280;26529;51.530;11.754;2023-01-19T07:55:33;98970.09;;;16.71;48.88
40075;BME280;26529;51.530;11.754;2023-01-19T07:57:59;98965.75;;;16.70;48.64
40075;BME280;26529;51.530;11.754;2023-01-19T08:00:25;98963.97;;;16.71;48.76
40075;BME280;26529;51.530;11.754;2023-01-19T08:02:51;98958.78;;;16.69;48.66
40075;BME280;26529;51.530;11.754;2023-01-19T08:05:19;98964.19;;;16.67;48.76
40075;BME280;26529;51.530;11.754;2023-01-19T08:07:45;98954.44;;;16.68;48.74
40075;BME280;26529;51.530;11.754;2023-01-19T08:10:12;98959.75;;;16.68;48.80
40075;BME280;26529;51.530;11.754;2023-01-19T08:12:38;98961.44;;;16.69;48.66
40075;BME280;26529;51.530;11.754;2023-01-19T08:15:05;98972.03;;;16.69;48.82
40075;BME280;26529;51.530;11.754;2023-01-19T08:17:30;98972.03;;;16.69;48.69
40075;BME280;26529;51.530;11.754;2023-01-19T08:19:56;98975.38;;;16.71;48.62
40075;BME280;26529;51.530;11.754;2023-01-19T08:22:22;98984.09;;;16.73;48.62
40075;BME280;26529;51.530;11.754;2023-01-19T08:24:47;98980.47;;;16.74;48.68
40075;BME280;26529;51.530;11.754;2023-01-19T08:27:13;98984.69;;;16.77;48.64
40075;BME280;26529;51.530;11.754;2023-01-19T08:29:38;98988.91;;;16.79;48.46
40075;BME280;26529;51.530;11.754;2023-01-19T08:32:04;98985.06;;;16.84;48.54
40075;BME280;26529;51.530;11.754;2023-01-19T08:34:31;98979.66;;;16.85;48.52
40075;BME280;26529;51.530;11.754;2023-01-19T08:36:57;98990.16;;;16.87;48.62
40075;BME280;26529;51.530;11.754;2023-01-19T08:39:23;98991.84;;;16.88;48.47
40075;BME280;26529;51.530;11.754;2023-01-19T08:41:49;98987.25;;;16.90;48.49
40075;BME280;26529;51.530;11.754;2023-01-19T08:44:15;98984.41;;;16.93;48.43
40075;BME280;26529;51.530;11.754;2023-01-19T08:46:41;98990.53;;;16.93;48.50
40075;BME280;26529;51.530;11.754;2023-01-19T08:49:06;98989.44;;;16.96;48.55
40075;BME280;26529;51.530;11.754;2023-01-19T08:51:32;98985.84;;;16.97;48.41
40075;BME280;26529;51.530;11.754;2023-01-19T08:53:58;98996.22;;;17.00;48.33
40075;BME280;26529;51.530;11.754;2023-01-19T08:56:24;98989.03;;;17.02;48.24
40075;BME280;26529;51.530;11.754;2023-01-19T08:58:50;98989.03;;;17.02;48.40
40075;BME280;26529;51.530;11.754;2023-01-19T09:01:15;98998.44;;;17.06;48.19
40075;BME280;26529;51.530;11.754;2023-01-19T09:03:41;98997.47;;;17.07;48.24
40075;BME280;26529;51.530;11.754;2023-01-19T09:06:09;98995.56;;;17.09;48.13
40075;BME280;26529;51.530;11.754;2023-01-19T09:08:34;98986.63;;;17.11;48.05
40075;BME280;26529;51.530;11.754;2023-01-19T09:11:00;98994.22;;;17.15;47.89
40075;BME280;26529;51.530;11.754;2023-01-19T09:13:26;98993.16;;;17.18;48.01
40075;BME280;26529;51.530;11.754;2023-01-19T09:15:51;98994.84;;;17.19;47.90
40075;BME280;26529;51.530;11.754;2023-01-19T09:18:20;98992.94;;;17.21;47.82
40075;BME280;26529;51.530;11.754;2023-01-19T09:20:47;99001.59;;;17.23;47.77
40075;BME280;26529;51.530;11.754;2023-01-19T09:23:16;98998.75;;;17.26;47.79
40075;BME280;26529;51.530;11.754;2023-01-19T09:25:44;99003.06;;;17.27;47.80
40075;BME280;26529;51.530;11.754;2023-01-19T09:28:11;99000.19;;;17.30;47.82
40075;BME280;26529;51.530;11.754;2023-01-19T09:30:38;99001.88;;;17.31;47.62
40075;BME280;26529;51.530;11.754;2023-01-19T09:33:06;99003.53;;;17.32;47.71
40075;BME280;26529;51.530;11.754;2023-01-19T09:35:33;98997.16;;;17.35;47.62
40075;BME280;26529;51.530;11.754;2023-01-19T09:37:59;98989.84;;;17.39;47.50
40075;BME280;26529;51.530;11.754;2023-01-19T09:40:25;98996.84;;;17.40;47.52
40075;BME280;26529;51.530;11.754;2023-01-19T09:43:12;98999.34;;;17.41;47.50
40075;BME280;26529;51.530;11.754;2023-01-19T09:48:31;98999.84;;;17.46;47.45
40075;BME280;26529;51.530;11.754;2023-01-19T09:51:02;98998.78;;;17.49;47.25
40075;BME280;26529;51.530;11.754;2023-01-19T09:54:18;98998.66;;;17.51;47.44
40075;BME280;26529;51.530;11.754;2023-01-19T09:56:23;98992.28;;;17.53;47.24
40075;BME280;26529;51.530;11.754;2023-01-19T09:58:50;98990.34;;;17.55;47.23
40075;BME280;26529;51.530;11.754;2023-01-19T10:06:46;98986.50;;;17.59;47.19
40075;BME280;26529;51.530;11.754;2023-01-19T10:09:29;98987.22;;;17.61;47.15
40075;BME280;26529;51.530;11.754;2023-01-19T10:12:38;98984.44;;;17.63;47.18
40075;BME280;26529;51.530;11.754;2023-01-19T10:15:30;98982.41;;;17.67;47.10
40075;BME280;26529;51.530;11.754;2023-01-19T10:18:16;98979.63;;;17.68;47.11
40075;BME280;26529;51.530;11.754;2023-01-19T10:23:37;98993.38;;;17.73;47.08
40075;BME280;26529;51.530;11.754;2023-01-19T10:26:21;98985.06;;;17.78;47.12
40075;BME280;26529;51.530;11.754;2023-01-19T10:28:50;98980.50;;;17.80;46.93
40075;BME280;26529;51.530;11.754;2023-01-19T10:31:20;98972.28;;;17.83;47.08
40075;BME280;26529;51.530;11.754;2023-01-19T10:33:48;98974.69;;;17.86;46.55
40075;BME280;26529;51.530;11.754;2023-01-19T10:36:20;98959.53;;;17.88;47.15
40075;BME280;26529;51.530;11.754;2023-01-19T10:38:46;98968.19;;;17.90;46.78
40075;BME280;26529;51.530;11.754;2023-01-19T10:41:24;98971.44;;;17.94;46.75
40075;BME280;26529;51.530;11.754;2023-01-19T10:44:02;98965.06;;;17.97;46.76
40075;BME280;26529;51.530;11.754;2023-01-19T10:46:33;98969.16;;;18.01;46.71
40075;BME280;26529;51.530;11.754;2023-01-19T10:49:02;98968.91;;;18.04;46.85
40075;BME280;26529;51.530;11.754;2023-01-19T10:51:28;98960.75;;;18.07;46.95
40075;BME280;26529;51.530;11.754;2023-01-19T10:53:59;98961.47;;;18.09;46.53
40075;BME280;26529;51.530;11.754;2023-01-19T10:56:33;98969.31;;;18.11;46.87
40075;BME280;26529;51.530;11.754;2023-01-19T10:59:00;98964.69;;;18.13;46.79
40075;BME280;26529;51.530;11.754;2023-01-19T11:01:28;98977.84;;;18.14;47.28
40075;BME280;26529;51.530;11.754;2023-01-19T11:03:56;98966.97;;;18.17;46.93
40075;BME280;26529;51.530;11.754;2023-01-19T11:06:30;98972.06;;;18.21;46.85
40075;BME280;26529;51.530;11.754;2023-01-19T11:09:13;98976.38;;;18.22;47.07
40075;BME280;26529;51.530;11.754;2023-01-19T11:11:47;98966.50;;;18.24;46.98
40075;BME280;26529;51.530;11.754;2023-01-19T11:14:20;98970.81;;;18.25;47.19
40075;BME280;26529;51.530;11.754;2023-01-19T11:16:51;98970.59;;;18.28;47.02
40075;BME280;26529;51.530;11.754;2023-01-19T11:19:30;98966.97;;;18.29;47.16
40075;BME280;26529;51.530;11.754;2023-01-19T11:22:15;98958.75;;;18.32;46.94
40075;BME280;26529;51.530;11.754;2023-01-19T11:24:46;98953.22;;;18.35;46.91
40075;BME280;26529;51.530;11.754;2023-01-19T11:27:15;98945.25;;;18.35;46.88
40075;BME280;26529;51.530;11.754;2023-01-19T11:29:47;98953.91;;;18.37;46.50
40075;BME280;26529;51.530;11.754;2023-01-19T11:32:21;98957.28;;;18.39;47.03
40075;BME280;26529;51.530;11.754;2023-01-19T11:34:47;98950.06;;;18.41;46.79
40075;BME280;26529;51.530;11.754;2023-01-19T11:39:55;98951.47;;;18.46;46.72
40075;BME280;26529;51.530;11.754;2023-01-19T11:42:21;98944.25;;;18.48;46.94
40075;BME280;26529;51.530;11.754;2023-01-19T11:45:14;98947.59;;;18.50;46.38
40075;BME280;26529;51.530;11.754;2023-01-19T11:47:43;98947.59;;;18.50;46.70
40075;BME280;26529;51.530;11.754;2023-01-19T11:55:30;98942.78;;;18.55;46.69
40075;BME280;26529;51.530;11.754;2023-01-19T11:57:57;98950.59;;;18.56;46.74
40075;BME280;26529;51.530;11.754;2023-01-19T12:00:27;98950.47;;;18.58;46.65
40075;BME280;26529;51.530;11.754;2023-01-19T12:03:07;98940.31;;;18.63;46.44
40075;BME280;26529;51.530;11.754;2023-01-19T12:05:38;98940.19;;;18.65;46.44
40075;BME280;26529;51.530;11.754;2023-01-19T12:08:11;98939.13;;;18.67;46.60
40075;BME280;26529;51.530;11.754;2023-01-19T12:10:44;98923.19;;;18.67;46.42
40075;BME280;26529;51.530;11.754;2023-01-19T12:13:22;98920.25;;;18.70;46.51
40075;BME280;26529;51.530;11.754;2023-01-19T12:15:55;98927.63;;;18.67;46.69
40075;BME280;26529;51.530;11.754;2023-01-19T12:18:32;98924.28;;;18.65;46.68
40075;BME280;26529;51.530;11.754;2023-01-19T12:20:59;98931.25;;;18.66;46.73
40075;BME280;26529;51.530;11.754;2023-01-19T12:26:34;98926.19;;;18.63;46.72
40075;BME280;26529;51.530;11.754;2023-01-19T12:29:12;98924.59;;;18.71;46.71
40075;BME280;26529;51.530;11.754;2023-01-19T12:31:39;98929.50;;;18.76;46.55
40075;BME280;26529;51.530;11.754;2023-01-19T12:36:48;98933.75;;;19.00;46.07
40075;BME280;26529;51.530;11.754;2023-01-19T12:39:17;98932.41;;;19.06;46.30
40075;BME280;26529;51.530;11.754;2023-01-19T12:41:44;98935.25;;;19.14;46.15
40075;BME280;26529;51.530;11.754;2023-01-19T12:46:39;98948.47;;;19.25;45.84
40075;BME280;26529;51.530;11.754;2023-01-19T12:51:54;98947.72;;;19.35;45.81
40075;BME280;26529;51.530;11.754;2023-01-19T12:54:36;98953.31;;;19.42;45.84
40075;BME280;26529;51.530;11.754;2023-01-19T12:57:17;98950.00;;;19.49;45.42
40075;BME280;26529;51.530;11.754;2023-01-19T12:59:43;98952.56;;;19.61;45.23
40075;BME280;26529;51.530;11.754;2023-01-19T13:02:30;98942.38;;;20.87;42.38
40075;BME280;26529;51.530;11.754;2023-01-19T13:18:58;98914.84;;;19.36;45.47
40075;BME280;26529;51.530;11.754;2023-01-19T13:22:47;98917.91;;;19.10;46.09
40075;BME280;26529;51.530;11.754;2023-01-19T13:25:07;98922.28;;;18.99;46.42
40075;BME280;26529;51.530;11.754;2023-01-19T13:27:35;98930.38;;;18.98;46.46
40075;BME280;26529;51.530;11.754;2023-01-19T13:30:01;98928.84;;;18.95;46.75
40075;BME280;26529;51.530;11.754;2023-01-19T13:32:27;98930.06;;;18.91;46.81
40075;BME280;26529;51.530;11.754;2023-01-19T13:34:55;98934.66;;;18.89;46.79
40075;BME280;26529;51.530;11.754;2023-01-19T13:37:26;98936.97;;;18.82;46.74
40075;BME280;26529;51.530;11.754;2023-01-19T13:39:53;98931.81;;;18.81;46.79
40075;BME280;26529;51.530;11.754;2023-01-19T13:42:32;98934.47;;;18.81;46.87
40075;BME280;26529;51.530;11.754;2023-01-19T13:45:04;98929.16;;;18.81;46.85
40075;BME280;26529;51.530;11.754;2023-01-19T13:47:38;98933.34;;;18.83;46.80
40075;BME280;26529;51.530;11.754;2023-01-19T13:50:18;98939.22;;;18.87;46.85
40075;BME280;26529;51.530;11.754;2023-01-19T13:52:44;98944.31;;;18.90;46.60
40075;BME280;26529;51.530;11.754;2023-01-19T13:55:14;98945.75;;;18.94;46.60